< < Back
Terminal Aerodrome Forecast


Current Version              Previous Versions:   1  2  3  4  5  6  7  8  9  

Terminal Aerodrome Forecast

310
FTUS44 KMOB 291124
TAFMOB
TAF
KMOB 291124Z 2912/3012 00000KT 6SM BR FEW060 SCT250
     FM291500 36003KT P6SM SCT250
     FM292000 18008KT P6SM VCTS SCT040CB BKN250
     FM300100 24003KT P6SM BKN250=



Latest METAR

787
SAUS80 KWBC 300600
MTRMOB
METAR KMOB 300556Z AUTO 29003KT 10SM CLR 23/21 A3006 RMK AO2 SLP175
T02280211 10272 20222 403280183 50003


USA.gov is the U.S. government's official web portal to all federal, state and local government web resources and services.